Time;durP1;ratioP1;P1;durP2;ratioP2;P2;SDS_P1;SDS_P2;PMS_P1;PMS_P2;Temp;Humidity;BMP_temperature;BMP_pressure;BME280_temperature;BME280_humidity;BME280_pressure;Samples;Min_cycle;Max_cycle;Signal;HPM_P1;HPM_P2
2022/05/08 00:00:00;;;;;;;;;;;;;;;14.90;83.42;100094.69;5073663;28;19924;-67
2022/05/08 00:02:30;;;;;;;;;;;;;;;14.92;83.37;100092.94;5073975;28;19925;-66
2022/05/08 00:04:59;;;;;;;;;;;;;;;14.90;83.68;100089.53;5073477;28;19925;-65
2022/05/08 00:07:29;;;;;;;;;;;;;;;14.89;83.58;100087.81;5073542;28;19928;-65
2022/05/08 00:09:57;;;;;;;;;;;;;;;14.83;83.02;100093.06;5073533;28;19931;-66
2022/05/08 00:12:26;;;;;;;;;;;;;;;14.78;83.09;100088.78;5073805;28;19928;-65
2022/05/08 00:14:56;;;;;;;;;;;;;;;14.73;83.33;100089.72;5073313;28;19925;-65
2022/05/08 00:17:25;;;;;;;;;;;;;;;14.72;83.51;100086.31;5073485;28;19924;-67
2022/05/08 00:19:54;;;;;;;;;;;;;;;14.72;83.33;100086.31;5073723;28;19924;-65
2022/05/08 00:22:23;;;;;;;;;;;;;;;14.72;83.35;100081.16;5076969;28;19971;-65
2022/05/08 00:25:02;;;;;;;;;;;;;;;14.69;83.16;100075.19;5077079;28;19963;-65
2022/05/08 00:27:31;;;;;;;;;;;;;;;14.68;83.29;100069.19;5077437;28;20378;-66
2022/05/08 00:30:02;;;;;;;;;;;;;;;14.71;82.93;100068.31;5077150;28;19924;-66
2022/05/08 00:32:31;;;;;;;;;;;;;;;14.68;82.82;100066.63;5077086;28;19928;-68
2022/05/08 00:35:00;;;;;;;;;;;;;;;14.65;83.00;100068.41;5077121;28;19977;-67
2022/05/08 00:37:28;;;;;;;;;;;;;;;14.59;82.88;100068.44;5076941;28;20014;-65
2022/05/08 00:39:57;;;;;;;;;;;;;;;14.54;83.02;100076.22;5077117;28;19928;-66
2022/05/08 00:42:27;;;;;;;;;;;;;;;14.52;82.79;100071.94;5076835;28;19978;-67
2022/05/08 00:44:56;;;;;;;;;;;;;;;14.46;82.90;100072.03;5077067;28;19924;-66
2022/05/08 00:47:26;;;;;;;;;;;;;;;14.41;83.08;100069.50;5076730;28;20003;-67
2022/05/08 00:49:55;;;;;;;;;;;;;;;14.40;82.80;100066.94;5077029;28;20436;-66
2022/05/08 00:52:27;;;;;;;;;;;;;;;14.41;83.03;100066.94;5077001;28;19924;-65
2022/05/08 00:55:01;;;;;;;;;;;;;;;14.39;83.24;100065.25;5076622;28;20014;-67
2022/05/08 00:57:30;;;;;;;;;;;;;;;14.34;82.81;100062.72;5076573;28;20425;-65
2022/05/08 01:00:03;;;;;;;;;;;;;;;14.33;83.13;100063.59;5076445;28;20009;-64
2022/05/08 01:02:35;;;;;;;;;;;;;;;14.31;82.88;100067.03;5076838;28;19924;-66
2022/05/08 01:05:04;;;;;;;;;;;;;;;14.28;82.89;100065.31;5076394;28;19925;-65
2022/05/08 01:07:33;;;;;;;;;;;;;;;14.26;82.81;100064.47;5076681;28;19924;-65
2022/05/08 01:10:02;;;;;;;;;;;;;;;14.21;83.20;100066.25;5076954;28;20401;-65
2022/05/08 01:12:33;;;;;;;;;;;;;;;14.17;82.78;100062.00;5076469;28;19950;-65
2022/05/08 01:15:13;;;;;;;;;;;;;;;14.17;83.27;100064.56;5076266;28;19924;-65
2022/05/08 01:17:43;;;;;;;;;;;;;;;14.18;82.81;100060.31;5076458;28;20393;-66
2022/05/08 01:20:13;;;;;;;;;;;;;;;14.14;82.96;100067.16;5076501;28;19925;-67
2022/05/08 01:22:43;;;;;;;;;;;;;;;14.09;82.61;100067.22;5076221;28;19967;-67
2022/05/08 01:25:14;;;;;;;;;;;;;;;14.10;82.82;100061.22;5076096;28;19925;-66
2022/05/08 01:27:42;;;;;;;;;;;;;;;14.17;82.91;100061.16;5076080;28;19951;-67
2022/05/08 01:30:11;;;;;;;;;;;;;;;14.17;82.89;100059.44;5076302;28;20016;-67
2022/05/08 01:32:40;;;;;;;;;;;;;;;14.18;83.13;100057.72;5075455;28;19925;-66
2022/05/08 01:35:09;;;;;;;;;;;;;;;14.18;82.84;100050.84;5075835;28;19924;-66
2022/05/08 01:37:37;;;;;;;;;;;;;;;14.14;83.30;100054.31;5075693;28;19932;-65
2022/05/08 01:40:09;;;;;;;;;;;;;;;14.11;82.99;100050.06;5075647;28;20424;-65
2022/05/08 01:42:38;;;;;;;;;;;;;;;14.10;83.00;100053.53;5075824;28;19928;-65
2022/05/08 01:45:06;;;;;;;;;;;;;;;14.12;82.99;100053.50;5075721;28;19924;-65
2022/05/08 01:50:14;;;;;;;;;;;;;;;14.15;83.38;100056.03;5075918;28;20374;-66
2022/05/08 01:52:43;;;;;;;;;;;;;;;14.17;83.22;100054.31;5075528;28;19928;-65
2022/05/08 01:55:13;;;;;;;;;;;;;;;14.21;83.34;100049.97;5075506;28;20014;-65
2022/05/08 01:57:42;;;;;;;;;;;;;;;14.16;82.99;100057.72;5075340;28;20025;-65
2022/05/08 02:00:11;;;;;;;;;;;;;;;14.15;83.19;100056.03;5075286;28;19924;-66
2022/05/08 02:02:44;;;;;;;;;;;;;;;14.13;83.01;100057.78;5075336;28;19924;-66
2022/05/08 02:05:14;;;;;;;;;;;;;;;14.04;82.91;100058.69;5075588;28;20378;-66
2022/05/08 02:07:43;;;;;;;;;;;;;;;13.96;83.09;100057.91;5075049;28;19956;-65
2022/05/08 02:10:14;;;;;;;;;;;;;;;13.93;83.23;100062.22;5075214;28;20425;-65
2022/05/08 02:12:43;;;;;;;;;;;;;;;13.95;83.34;100058.78;5076088;28;19925;-65
2022/05/08 02:15:12;;;;;;;;;;;;;;;13.96;82.95;100055.31;5075318;28;20317;-65
2022/05/08 02:17:40;;;;;;;;;;;;;;;13.93;83.28;100057.09;5074870;28;19942;-65
2022/05/08 02:20:11;;;;;;;;;;;;;;;13.88;82.91;100061.41;5074928;28;20290;-64
2022/05/08 02:22:39;;;;;;;;;;;;;;;13.81;82.90;100059.75;5074740;28;19925;-66
2022/05/08 02:25:08;;;;;;;;;;;;;;;13.74;83.32;100064.09;5075189;28;19924;-65
2022/05/08 02:27:40;;;;;;;;;;;;;;;13.77;83.34;100065.78;5074655;28;19924;-65
2022/05/08 02:30:09;;;;;;;;;;;;;;;13.77;82.83;100065.78;5074833;28;19994;-65
2022/05/08 02:32:38;;;;;;;;;;;;;;;13.72;83.29;100064.97;5075040;28;19960;-65
2022/05/08 02:35:09;;;;;;;;;;;;;;;13.67;82.82;100057.28;5074691;28;19946;-65
2022/05/08 02:37:38;;;;;;;;;;;;;;;13.68;83.27;100068.38;5074647;28;20008;-65
2022/05/08 02:40:08;;;;;;;;;;;;;;;13.66;82.89;100064.97;5074832;28;20357;-65
2022/05/08 02:42:37;;;;;;;;;;;;;;;13.64;83.08;100066.72;5074163;28;19947;-65
2022/05/08 02:45:09;;;;;;;;;;;;;;;13.62;83.00;100073.56;5074829;28;20332;-64
2022/05/08 02:47:40;;;;;;;;;;;;;;;13.62;83.10;100068.44;5074421;28;19928;-64
2022/05/08 02:50:11;;;;;;;;;;;;;;;13.60;82.89;100080.44;5074622;28;19933;-66
2022/05/08 02:52:40;;;;;;;;;;;;;;;13.60;83.14;100070.16;5074429;28;19936;-67
2022/05/08 03:00:30;;;;;;;;;;;;;;;13.58;82.58;100074.47;5073377;28;19928;-67
2022/05/08 03:02:59;;;;;;;;;;;;;;;13.59;83.03;100068.44;5074241;28;19978;-66
2022/05/08 03:05:28;;;;;;;;;;;;;;;13.57;82.66;100073.59;5074224;28;19924;-66
2022/05/08 03:07:56;;;;;;;;;;;;;;;13.58;82.86;100071.91;5074783;28;19924;-66
2022/05/08 03:10:25;;;;;;;;;;;;;;;13.56;82.92;100073.59;5074303;28;19924;-67
2022/05/08 03:12:54;;;;;;;;;;;;;;;13.56;82.81;100079.59;5074452;28;20270;-64
2022/05/08 03:15:23;;;;;;;;;;;;;;;13.49;82.78;100082.19;5074169;28;19931;-64
2022/05/08 03:17:53;;;;;;;;;;;;;;;13.48;82.85;100081.38;5074173;28;19973;-65
2022/05/08 03:20:22;;;;;;;;;;;;;;;13.52;82.83;100082.19;5074210;28;20316;-66
2022/05/08 03:22:51;;;;;;;;;;;;;;;13.49;82.58;100083.03;5074222;28;20063;-64
2022/05/08 03:25:19;;;;;;;;;;;;;;;13.44;82.74;100080.50;5073986;28;20015;-65
2022/05/08 03:27:48;;;;;;;;;;;;;;;13.46;82.45;100090.75;5074297;28;19924;-65
2022/05/08 03:30:16;;;;;;;;;;;;;;;13.43;82.73;100093.34;5073882;28;19924;-66
2022/05/08 03:32:45;;;;;;;;;;;;;;;13.40;82.67;100089.09;5074179;28;19946;-65
2022/05/08 03:35:15;;;;;;;;;;;;;;;13.40;82.20;100083.97;5073921;28;19967;-65
2022/05/08 03:37:44;;;;;;;;;;;;;;;13.37;82.58;100088.25;5073876;28;20007;-66
2022/05/08 03:40:12;;;;;;;;;;;;;;;13.34;82.63;100094.25;5073692;28;19967;-65
2022/05/08 03:42:42;;;;;;;;;;;;;;;13.27;82.43;100102.81;5073756;28;19924;-65
2022/05/08 03:45:12;;;;;;;;;;;;;;;13.25;82.53;100099.41;5073844;28;19931;-66
2022/05/08 03:47:41;;;;;;;;;;;;;;;13.27;82.32;100102.81;5073827;28;20420;-65
2022/05/08 03:50:10;;;;;;;;;;;;;;;13.27;82.68;100105.38;5073673;28;19971;-65
2022/05/08 03:52:40;;;;;;;;;;;;;;;13.22;82.27;100112.25;5073748;28;19924;-67
2022/05/08 03:55:11;;;;;;;;;;;;;;;13.22;82.90;100109.69;5076557;28;20484;-66
2022/05/08 03:57:40;;;;;;;;;;;;;;;13.24;82.65;100114.81;5077753;28;19928;-66
2022/05/08 04:00:09;;;;;;;;;;;;;;;13.27;82.89;100115.63;5077965;28;19978;-66
2022/05/08 04:02:41;;;;;;;;;;;;;;;13.28;82.77;100121.63;5077902;28;19924;-66
2022/05/08 04:05:10;;;;;;;;;;;;;;;13.29;82.64;100126.72;5077855;28;19928;-66
2022/05/08 04:07:41;;;;;;;;;;;;;;;13.35;82.94;100121.59;5077543;28;19924;-66
2022/05/08 04:10:10;;;;;;;;;;;;;;;13.36;82.77;100122.44;5077480;28;19935;-66
2022/05/08 04:12:39;;;;;;;;;;;;;;;13.37;82.73;100119.88;5077747;28;19932;-66
2022/05/08 04:16:15;;;;;;;;;;;;;;;13.40;82.97;100122.44;5077460;28;20019;-66
2022/05/08 04:17:57;;;;;;;;;;;;;;;13.43;83.05;100130.13;5077167;28;19960;-65
2022/05/08 04:20:26;;;;;;;;;;;;;;;13.47;82.93;100124.94;5077055;28;19924;-67
2022/05/08 04:25:35;;;;;;;;;;;;;;;13.60;82.84;100127.47;5077205;28;19931;-66
2022/05/08 04:28:03;;;;;;;;;;;;;;;13.61;83.11;100123.16;5077075;28;19931;-66
2022/05/08 04:30:33;;;;;;;;;;;;;;;13.63;83.02;100126.59;5077035;28;20031;-66
2022/05/08 04:33:02;;;;;;;;;;;;;;;13.69;82.84;100122.25;5076984;28;19925;-65
2022/05/08 04:35:30;;;;;;;;;;;;;;;13.75;83.03;100126.50;5077020;28;20019;-66
2022/05/08 04:38:01;;;;;;;;;;;;;;;13.83;82.98;100127.28;5077556;28;19974;-66
2022/05/08 04:40:29;;;;;;;;;;;;;;;13.88;83.24;100133.25;5077271;28;19955;-66
2022/05/08 04:42:58;;;;;;;;;;;;;;;13.94;82.88;100128.09;5076714;28;19970;-66
2022/05/08 04:45:27;;;;;;;;;;;;;;;14.06;83.00;100125.41;5077683;28;19925;-66
2022/05/08 04:47:55;;;;;;;;;;;;;;;14.11;82.79;100126.22;5077011;28;19990;-65
2022/05/08 04:50:27;;;;;;;;;;;;;;;14.24;82.66;100130.41;5077298;28;19924;-66
2022/05/08 04:52:56;;;;;;;;;;;;;;;14.36;82.96;100132.03;5076545;28;19963;-67
2022/05/08 04:55:26;;;;;;;;;;;;;;;14.43;82.59;100134.56;5076632;28;20020;-66
2022/05/08 04:57:55;;;;;;;;;;;;;;;14.54;82.68;100132.72;5076638;28;19931;-66
2022/05/08 05:00:25;;;;;;;;;;;;;;;14.58;82.03;100129.28;5076523;28;19925;-66
2022/05/08 05:02:54;;;;;;;;;;;;;;;14.71;82.00;100133.41;5076364;28;19939;-66
2022/05/08 05:05:23;;;;;;;;;;;;;;;14.80;81.90;100134.19;5076051;28;19964;-65
2022/05/08 05:07:51;;;;;;;;;;;;;;;14.73;81.23;100131.66;5076011;28;20090;-65
2022/05/08 05:10:20;;;;;;;;;;;;;;;14.78;81.51;100140.19;5076650;28;19925;-65
2022/05/08 05:12:50;;;;;;;;;;;;;;;14.82;81.29;100140.16;5076067;28;19924;-65
2022/05/08 05:15:29;;;;;;;;;;;;;;;14.85;80.87;100140.13;5076601;28;19924;-66
2022/05/08 05:18:01;;;;;;;;;;;;;;;14.97;81.16;100145.16;5076513;28;19925;-65
2022/05/08 05:20:30;;;;;;;;;;;;;;;15.09;81.06;100147.59;5075776;28;19955;-65
2022/05/08 05:23:04;;;;;;;;;;;;;;;15.17;80.68;100146.59;5076034;28;19939;-66
2022/05/08 05:25:33;;;;;;;;;;;;;;;15.27;80.37;100144.78;5076061;28;19928;-65
2022/05/08 05:28:03;;;;;;;;;;;;;;;15.35;79.71;100145.53;5076269;28;20325;-66
2022/05/08 05:30:36;;;;;;;;;;;;;;;15.52;79.61;100153.94;5075982;28;19963;-65
2022/05/08 05:33:04;;;;;;;;;;;;;;;15.57;79.28;100147.00;5075823;28;20374;-65
2022/05/08 05:35:33;;;;;;;;;;;;;;;15.68;78.95;100147.69;5075744;28;19925;-64
2022/05/08 05:38:02;;;;;;;;;;;;;;;15.72;78.55;100136.47;5076173;28;19928;-66
2022/05/08 05:40:31;;;;;;;;;;;;;;;15.79;78.24;100143.25;5075747;28;19951;-65
2022/05/08 05:42:59;;;;;;;;;;;;;;;15.88;78.27;100148.25;5076301;28;20362;-64
2022/05/08 05:45:29;;;;;;;;;;;;;;;15.97;77.79;100142.97;5075604;28;19932;-65
2022/05/08 05:47:59;;;;;;;;;;;;;;;16.03;77.58;100149.75;5075669;28;19925;-64
2022/05/08 05:50:28;;;;;;;;;;;;;;;16.06;77.27;100153.13;5075525;28;19950;-64
2022/05/08 05:52:56;;;;;;;;;;;;;;;16.12;76.92;100156.50;5075455;28;20382;-65
2022/05/08 05:55:25;;;;;;;;;;;;;;;16.19;76.40;100147.78;5075608;28;20285;-65
2022/05/08 05:57:56;;;;;;;;;;;;;;;16.33;76.65;100161.31;5075746;28;19924;-64
2022/05/08 06:00:25;;;;;;;;;;;;;;;16.54;76.45;100160.97;5075405;28;19924;-65
2022/05/08 06:02:55;;;;;;;;;;;;;;;16.70;76.54;100157.22;5075182;28;20019;-65
2022/05/08 06:05:24;;;;;;;;;;;;;;;16.81;76.16;100154.47;5075133;28;19959;-65
2022/05/08 06:07:52;;;;;;;;;;;;;;;16.84;75.70;100157.88;5075156;28;19924;-65
2022/05/08 06:10:21;;;;;;;;;;;;;;;16.83;75.23;100158.72;5075218;28;19924;-64
2022/05/08 06:12:49;;;;;;;;;;;;;;;16.83;74.96;100157.88;5075005;28;19974;-65
2022/05/08 06:15:18;;;;;;;;;;;;;;;16.84;74.47;100157.88;5074148;28;19948;-65
2022/05/08 06:17:47;;;;;;;;;;;;;;;16.90;74.43;100159.47;5074905;28;20002;-65
2022/05/08 06:20:17;;;;;;;;;;;;;;;16.99;74.57;100160.13;5074955;28;19978;-65
2022/05/08 06:22:46;;;;;;;;;;;;;;;17.16;74.68;100168.41;5074638;28;20293;-65
2022/05/08 06:25:15;;;;;;;;;;;;;;;17.28;74.10;100168.16;5074820;28;19928;-65
2022/05/08 06:27:44;;;;;;;;;;;;;;;17.40;73.57;100170.50;5074677;28;19968;-65
2022/05/08 06:30:13;;;;;;;;;;;;;;;17.39;73.07;100171.38;5074957;28;20011;-65
2022/05/08 06:32:42;;;;;;;;;;;;;;;17.37;72.54;100170.53;5075044;28;19932;-65
2022/05/08 06:35:32;;;;;;;;;;;;;;;17.39;72.11;100166.22;5074894;28;20022;-65
2022/05/08 06:38:02;;;;;;;;;;;;;;;17.55;71.97;100166.78;5075098;28;20049;-65
2022/05/08 06:40:30;;;;;;;;;;;;;;;17.64;71.46;100170.88;5074580;28;19924;-65
2022/05/08 06:42:59;;;;;;;;;;;;;;;17.63;70.90;100169.19;5074606;28;20294;-65
2022/05/08 06:45:27;;;;;;;;;;;;;;;17.62;70.72;100175.22;5074495;28;19970;-65
2022/05/08 06:48:15;;;;;;;;;;;;;;;17.72;70.66;100169.00;5074408;28;19931;-65
2022/05/08 06:50:45;;;;;;;;;;;;;;;17.85;70.65;100175.59;5074355;28;19924;-65
2022/05/08 06:53:14;;;;;;;;;;;;;;;18.06;71.05;100175.09;5074335;28;19968;-65
2022/05/08 06:55:45;;;;;;;;;;;;;;;18.18;70.85;100174.81;5074214;28;19963;-64
2022/05/08 06:58:14;;;;;;;;;;;;;;;18.23;70.91;100178.16;5074669;28;19928;-64
2022/05/08 07:03:21;;;;;;;;;;;;;;;18.38;70.28;100172.59;5074432;28;19925;-66
2022/05/08 07:05:51;;;;;;;;;;;;;;;18.51;69.87;100175.75;5074275;28;19978;-67
2022/05/08 07:08:20;;;;;;;;;;;;;;;18.55;69.07;100175.63;5074214;28;19925;-66
2022/05/08 07:10:48;;;;;;;;;;;;;;;18.55;69.11;100174.78;5074661;28;20266;-66
2022/05/08 07:13:17;;;;;;;;;;;;;;;18.67;68.92;100175.31;5073933;28;20011;-66
2022/05/08 07:15:45;;;;;;;;;;;;;;;18.78;68.35;100177.66;5074100;28;19978;-66
2022/05/08 07:18:29;;;;;;;;;;;;;;;18.83;67.84;100174.94;5073967;28;19924;-66
2022/05/08 07:20:59;;;;;;;;;;;;;;;18.77;67.09;100175.09;5073664;28;20019;-65
2022/05/08 07:23:28;;;;;;;;;;;;;;;18.87;67.17;100171.38;5073772;28;19924;-66
2022/05/08 07:25:56;;;;;;;;;;;;;;;19.10;67.48;100175.03;5073520;28;19924;-66
2022/05/08 07:28:25;;;;;;;;;;;;;;;19.35;67.48;100170.03;5073728;28;19924;-65
2022/05/08 07:30:55;;;;;;;;;;;;;;;19.32;66.75;100164.94;5073720;28;20281;-65
2022/05/08 07:33:24;;;;;;;;;;;;;;;19.26;66.64;100165.13;5074169;28;19954;-65
2022/05/08 07:38:32;;;;;;;;;;;;;;;19.67;66.39;100167.41;5073531;28;19924;-65
2022/05/08 07:41:01;;;;;;;;;;;;;;;19.83;65.52;100168.63;5074098;28;19954;-65
2022/05/08 07:43:30;;;;;;;;;;;;;;;20.10;65.39;100171.25;5073303;28;19924;-65
2022/05/08 07:45:59;;;;;;;;;;;;;;;20.12;64.12;100169.44;5073470;28;19925;-65
2022/05/08 07:48:28;;;;;;;;;;;;;;;20.15;64.08;100175.41;5073914;28;19926;-65
2022/05/08 07:50:59;;;;;;;;;;;;;;;20.15;63.61;100177.13;5073671;28;19967;-66
2022/05/08 07:53:28;;;;;;;;;;;;;;;20.02;63.25;100174.94;5073448;28;20011;-65
2022/05/08 07:55:58;;;;;;;;;;;;;;;19.96;63.71;100169.91;5073895;28;20019;-65
2022/05/08 07:58:31;;;;;;;;;;;;;;;20.02;63.66;100169.75;5073563;28;20348;-65
2022/05/08 08:01:02;;;;;;;;;;;;;;;20.13;63.87;100169.38;5073876;28;20337;-65
2022/05/08 08:03:32;;;;;;;;;;;;;;;20.16;63.69;100173.63;5073528;28;20012;-64
2022/05/08 08:06:01;;;;;;;;;;;;;;;20.18;63.83;100179.63;5073108;28;19959;-65
2022/05/08 08:08:39;;;;;;;;;;;;;;;20.12;63.95;100179.81;5073949;28;20366;-65
2022/05/08 08:11:11;;;;;;;;;;;;;;;20.12;63.79;100179.81;5073739;28;19947;-65
2022/05/08 08:13:40;;;;;;;;;;;;;;;20.16;63.35;100181.41;5073555;28;19932;-65
2022/05/08 08:16:09;;;;;;;;;;;;;;;20.17;63.48;100177.94;5073768;28;19999;-65
2022/05/08 08:18:42;;;;;;;;;;;;;;;20.12;63.04;100179.81;5073510;28;19924;-65
2022/05/08 08:21:12;;;;;;;;;;;;;;;20.18;62.82;100180.47;5073221;28;19924;-65
2022/05/08 08:23:44;;;;;;;;;;;;;;;20.34;62.05;100175.69;5073349;28;19928;-65
2022/05/08 08:26:18;;;;;;;;;;;;;;;20.42;60.75;100173.69;5073407;28;20441;-64
2022/05/08 08:28:47;;;;;;;;;;;;;;;20.52;59.99;100177.66;5073377;28;19925;-65
2022/05/08 08:31:15;;;;;;;;;;;;;;;20.65;60.33;100172.03;5073395;28;19928;-65
2022/05/08 08:33:44;;;;;;;;;;;;;;;20.72;59.30;100177.84;5072856;28;19925;-64
2022/05/08 08:36:13;;;;;;;;;;;;;;;20.98;60.08;100175.19;5072071;28;19966;-64
2022/05/08 08:38:42;;;;;;;;;;;;;;;21.20;59.00;100175.31;5073273;28;20371;-65
2022/05/08 08:41:14;;;;;;;;;;;;;;;21.25;58.45;100173.41;5073907;28;19978;-65
2022/05/08 08:49:24;;;;;;;;;;;;;;;21.34;55.77;100170.47;5077015;28;19924;-65
2022/05/08 08:51:53;;;;;;;;;;;;;;;21.44;56.31;100169.22;5075476;28;19932;-65
2022/05/08 08:54:25;;;;;;;;;;;;;;;21.70;56.65;100176.03;5076670;28;19931;-65
2022/05/08 08:56:53;;;;;;;;;;;;;;;21.92;55.47;100177.78;5076563;28;19932;-65
2022/05/08 08:59:33;;;;;;;;;;;;;;;21.92;54.18;100177.78;5076274;28;19925;-65
2022/05/08 09:02:02;;;;;;;;;;;;;;;21.95;53.46;100179.41;5076248;28;20023;-65
2022/05/08 09:04:32;;;;;;;;;;;;;;;21.95;53.58;100171.63;5076606;28;20377;-65
2022/05/08 09:07:01;;;;;;;;;;;;;;;22.02;54.07;100173.06;5076982;28;20394;-65
2022/05/08 09:09:31;;;;;;;;;;;;;;;22.28;55.22;100172.88;5076198;28;19951;-65
2022/05/08 09:12:00;;;;;;;;;;;;;;;22.37;55.07;100177.69;5077019;28;19925;-65
2022/05/08 09:14:30;;;;;;;;;;;;;;;22.40;53.54;100172.38;5076138;28;20007;-65
2022/05/08 09:17:01;;;;;;;;;;;;;;;22.34;52.53;100170.00;5076515;28;19989;-65
2022/05/08 09:19:32;;;;;;;;;;;;;;;22.23;52.23;100164.41;5076235;28;19925;-65
2022/05/08 09:22:03;;;;;;;;;;;;;;;22.33;52.47;100167.47;5075814;28;19928;-65
2022/05/08 09:24:33;;;;;;;;;;;;;;;22.53;53.39;100168.34;5076545;28;20374;-65
2022/05/08 09:27:13;;;;;;;;;;;;;;;22.79;53.00;100162.09;5076392;28;19924;-65
2022/05/08 09:29:42;;;;;;;;;;;;;;;22.64;50.87;100163.56;5076336;28;19928;-65
2022/05/08 09:32:36;;;;;;;;;;;;;;;22.49;49.20;100161.56;5075881;28;19924;-65
2022/05/08 09:35:06;;;;;;;;;;;;;;;22.56;48.31;100165.59;5075971;28;19924;-64
2022/05/08 09:37:34;;;;;;;;;;;;;;;22.62;48.51;100157.59;5075005;28;19932;-65
2022/05/08 09:40:14;;;;;;;;;;;;;;;22.94;49.27;100157.97;5075789;28;19930;-65
2022/05/08 09:42:42;;;;;;;;;;;;;;;23.15;48.99;100150.06;5075839;28;19924;-65
2022/05/08 09:45:11;;;;;;;;;;;;;;;23.56;49.70;100153.44;5075626;28;19931;-65
2022/05/08 09:47:44;;;;;;;;;;;;;;;23.57;49.78;100147.28;5076256;28;20377;-65
2022/05/08 09:50:13;;;;;;;;;;;;;;;23.68;50.75;100155.44;5075633;28;19970;-65
2022/05/08 09:52:43;;;;;;;;;;;;;;;23.78;49.18;100150.63;5075212;28;19974;-65
2022/05/08 09:55:14;;;;;;;;;;;;;;;23.91;48.69;100152.59;5075908;28;19947;-66
2022/05/08 09:57:42;;;;;;;;;;;;;;;24.02;48.03;100145.09;5075411;28;20382;-65
2022/05/08 10:00:16;;;;;;;;;;;;;;;24.04;46.70;100150.25;5075517;28;20019;-65
2022/05/08 10:02:50;;;;;;;;;;;;;;;23.75;47.09;100151.66;5075792;28;20401;-66
2022/05/08 10:05:19;;;;;;;;;;;;;;;23.43;47.27;100149.69;5075245;28;19950;-65
2022/05/08 10:07:48;;;;;;;;;;;;;;;23.38;47.33;100156.84;5075530;28;19928;-65
2022/05/08 10:15:41;;;;;;;;;;;;;;;23.58;46.47;100148.97;5072116;28;20361;-65
2022/05/08 10:18:20;;;;;;;;;;;;;;;23.82;48.17;100150.44;5075568;28;19968;-65
2022/05/08 10:20:59;;;;;;;;;;;;;;;23.81;48.88;100146.13;5075077;28;19924;-65
2022/05/08 10:23:38;;;;;;;;;;;;;;;23.53;48.99;100153.56;5074824;28;19971;-66
2022/05/08 10:26:20;;;;;;;;;;;;;;;23.19;49.97;100150.75;5074851;28;19960;-65
2022/05/08 10:28:59;;;;;;;;;;;;;;;22.83;47.21;100142.81;5075124;28;20012;-65
2022/05/08 10:31:38;;;;;;;;;;;;;;;22.83;46.16;100147.16;5075103;28;19963;-65
2022/05/08 10:34:07;;;;;;;;;;;;;;;23.23;47.72;100141.88;5074827;28;20019;-65
2022/05/08 10:36:36;;;;;;;;;;;;;;;23.60;47.46;100144.53;5074633;28;19925;-65
2022/05/08 10:39:20;;;;;;;;;;;;;;;23.94;48.14;100142.03;5074989;28;20037;-66
2022/05/08 10:42:00;;;;;;;;;;;;;;;24.29;48.07;100142.94;5042390;28;19931;-65
2022/05/08 10:44:35;;;;;;;;;;;;;;;24.53;48.26;100141.72;5074619;28;19924;-65
2022/05/08 10:47:21;;;;;;;;;;;;;;;24.73;47.48;100142.47;5074547;28;19925;-65
2022/05/08 10:49:50;;;;;;;;;;;;;;;24.90;46.70;100151.16;5064733;28;19925;-65
2022/05/08 10:52:18;;;;;;;;;;;;;;;25.07;46.13;100138.06;5074405;28;20430;-66
2022/05/08 10:54:56;;;;;;;;;;;;;;;25.00;44.19;100141.91;5074280;28;20455;-65
2022/05/08 10:57:31;;;;;;;;;;;;;;;25.13;44.07;100135.13;5074613;28;19925;-65
2022/05/08 11:00:00;;;;;;;;;;;;;;;25.43;44.99;100140.50;5074383;28;19924;-66
2022/05/08 11:02:40;;;;;;;;;;;;;;;25.26;42.49;100130.94;5074349;28;19924;-64
2022/05/08 11:05:09;;;;;;;;;;;;;;;25.25;42.35;100123.16;5073804;28;20359;-64
2022/05/08 11:07:48;;;;;;;;;;;;;;;25.45;42.92;100122.97;5074241;28;19929;-65
2022/05/08 11:10:16;;;;;;;;;;;;;;;25.56;43.41;100130.22;5074220;28;20378;-65
2022/05/08 11:12:56;;;;;;;;;;;;;;;25.48;42.88;100121.97;5074127;28;19924;-65
2022/05/08 11:15:26;;;;;;;;;;;;;;;25.39;43.82;100122.44;5074279;28;20015;-64
2022/05/08 11:18:04;;;;;;;;;;;;;;;25.31;43.58;100118.44;5074091;28;19924;-65
2022/05/08 11:20:33;;;;;;;;;;;;;;;25.14;42.99;100118.53;5072677;28;19978;-65
2022/05/08 11:23:11;;;;;;;;;;;;;;;25.30;43.96;100118.53;5074038;28;19978;-64
2022/05/08 11:25:42;;;;;;;;;;;;;;;25.38;43.74;100118.97;5073331;28;20445;-65
2022/05/08 11:28:13;;;;;;;;;;;;;;;25.64;43.64;100122.81;5073782;28;19924;-65
2022/05/08 11:30:52;;;;;;;;;;;;;;;25.73;44.52;100117.06;5074316;28;19932;-65
2022/05/08 11:36:11;;;;;;;;;;;;;;;25.71;42.22;100103.22;5073771;28;20019;-65
2022/05/08 11:38:44;;;;;;;;;;;;;;;25.67;42.65;100102.56;5074182;28;19978;-65
2022/05/08 11:41:14;;;;;;;;;;;;;;;25.57;43.11;100105.78;5074278;28;19971;-66
2022/05/08 11:43:43;;;;;;;;;;;;;;;25.51;45.11;100106.09;5073862;28;19974;-65
2022/05/08 11:46:15;;;;;;;;;;;;;;;25.43;44.46;100103.03;5073816;28;20436;-65
2022/05/08 11:48:51;;;;;;;;;;;;;;;25.44;45.74;100105.59;5074075;28;19924;-65
2022/05/08 11:51:21;;;;;;;;;;;;;;;25.21;44.93;100108.59;5072641;28;20440;-65
2022/05/08 11:53:50;;;;;;;;;;;;;;;25.21;44.67;100104.22;5073918;28;19928;-65
2022/05/08 11:56:23;;;;;;;;;;;;;;;25.29;44.81;100107.22;5073537;28;19979;-65
2022/05/08 11:58:52;;;;;;;;;;;;;;;25.16;43.37;100108.84;5073556;28;19924;-64
2022/05/08 12:01:26;;;;;;;;;;;;;;;25.09;42.54;100115.31;5073517;28;19956;-64
2022/05/08 12:03:55;;;;;;;;;;;;;;;25.03;42.63;100113.03;5073834;28;19963;-64
2022/05/08 12:06:24;;;;;;;;;;;;;;;24.94;40.92;100113.50;5073369;28;19932;-65
2022/05/08 12:08:54;;;;;;;;;;;;;;;24.87;40.13;100106.91;5073916;28;19932;-65
2022/05/08 12:11:29;;;;;;;;;;;;;;;25.00;41.73;100105.34;5073672;28;19924;-64
2022/05/08 12:14:01;;;;;;;;;;;;;;;25.27;43.27;100114.31;5074059;28;20023;-63
2022/05/08 12:16:32;;;;;;;;;;;;;;;25.53;42.89;100114.72;5076382;28;19960;-64
2022/05/08 12:19:12;;;;;;;;;;;;;;;25.63;41.98;100110.66;5077644;28;19936;-66
2022/05/08 12:21:41;;;;;;;;;;;;;;;25.66;39.99;100110.47;5077539;28;19974;-64
2022/05/08 12:24:10;;;;;;;;;;;;;;;25.60;39.53;100110.84;5077501;28;19925;-64
2022/05/08 12:26:39;;;;;;;;;;;;;;;25.74;40.08;100103.06;5076967;28;19925;-64
2022/05/08 12:29:30;;;;;;;;;;;;;;;25.84;40.25;100105.06;5077044;28;20027;-64
2022/05/08 12:32:00;;;;;;;;;;;;;;;25.81;41.21;100099.16;5077041;28;19928;-65
2022/05/08 12:34:30;;;;;;;;;;;;;;;25.87;41.72;100098.81;5077062;28;19981;-64
2022/05/08 12:36:59;;;;;;;;;;;;;;;25.68;40.58;100095.53;5077186;28;20370;-65
2022/05/08 12:39:30;;;;;;;;;;;;;;;25.68;39.94;100092.94;5077014;28;20007;-64
2022/05/08 12:41:59;;;;;;;;;;;;;;;25.76;41.10;100090.75;5077240;28;19931;-64
2022/05/08 12:44:27;;;;;;;;;;;;;;;25.77;41.19;100087.22;5076919;28;20015;-64
2022/05/08 12:46:56;;;;;;;;;;;;;;;25.85;40.56;100084.97;5076759;28;19924;-65
2022/05/08 12:49:26;;;;;;;;;;;;;;;25.95;41.45;100080.91;5077091;28;19971;-65
2022/05/08 12:51:55;;;;;;;;;;;;;;;25.90;41.12;100080.31;5076744;28;19964;-65
2022/05/08 12:54:23;;;;;;;;;;;;;;;25.83;42.49;100076.38;5076958;28;20364;-64
2022/05/08 12:56:52;;;;;;;;;;;;;;;25.81;41.89;100079.09;5076640;28;20019;-64
2022/05/08 13:01:59;;;;;;;;;;;;;;;25.71;41.59;100072.69;5076627;28;19947;-64
2022/05/08 13:04:30;;;;;;;;;;;;;;;25.31;40.49;100071.41;5076537;28;19928;-64
2022/05/08 13:06:59;;;;;;;;;;;;;;;25.26;41.70;100070.84;5076276;28;20007;-64
2022/05/08 13:09:28;;;;;;;;;;;;;;;25.28;40.06;100068.97;5076465;28;19964;-65
2022/05/08 13:11:57;;;;;;;;;;;;;;;25.22;38.76;100074.53;5076665;28;19924;-64
2022/05/08 13:14:25;;;;;;;;;;;;;;;25.15;40.17;100072.31;5076721;28;19955;-63
2022/05/08 13:16:56;;;;;;;;;;;;;;;25.23;40.17;100073.59;5076281;28;20007;-64
2022/05/08 13:19:27;;;;;;;;;;;;;;;25.14;40.97;100066.28;5076522;28;19924;-64
2022/05/08 13:21:57;;;;;;;;;;;;;;;25.03;41.00;100073.81;5076279;28;19924;-64
2022/05/08 13:24:26;;;;;;;;;;;;;;;25.18;42.92;100070.41;5075933;28;19932;-64